ZYTX/SHE METAR and TAF weather

Enter ICAO airport designator
Station Type Date Time Source
ZYTX METAR 2020/04/06 16:30 UTC NOAA

ZYTX 061630Z 04005MPS CAVOK 08/M07 Q1020 NOSIG


Station Type Date Time Source
ZYTX Decoded METAR 2020/04/06 16:30 UTC NOAA

Shenyang / Taokian, China (ZYTX) 41-48N 123-24E
Apr 06, 2020 - 12:30 PM EDT / 2020.04.06 1630 UTC
Wind: from the NE (040 degrees) at 11 MPH (10 KT):0
Visibility: greater than 7 mile(s):0
Temperature: 46 F (8 C)
Dew Point: 19 F (-7 C)
Relative Humidity: 33%
Pressure (altimeter): 30.12 in. Hg (1020 hPa)
ob: ZYTX 061630Z 04005MPS CAVOK 08/M07 Q1020 NOSIG
cycle: 16

Station Type Date Time Source
ZYTX TAF 2020/04/06 18:05 UTC NOAA

TAF ZYTX 061315Z 0618/0718 04004MPS CAVOK TX13/0706Z TN00/0718Z
BECMG 0701/0702 34005G10MPS

Example: see airport list